Tisul, Russia
Current Conditions -  °F | °C
As of 12:30 AM on Sunday 26 Oct 2014 (Local Time) from UNEE Reporting Station
Overcast Overcast  
Wind Chill: 18°   Ceiling: 2900
Heat Index: 27°   Visibility: 6mi
Dew Point: 19°   Wind: 9mph
Humidity: 74%   Direction: 270°W
Pressure: 29.94"   Gusts: NA
Location:  55.76°N, 88.31°E
Report Text: UNEE 251730Z 27004MPS 9999 OVC029CB M03/M07 Q1014 NOSIG RMKQFE737 23350050
Loading
Personal Weather Stations






























Interactive Weather Map New forecast layout! Learn more

10-Day Weather Forecast

Advertisements
Track Severe Weather on mobile